createdAt,value
2019-05-03T00:01:52.834Z,11.05
2019-05-03T00:04:25.139Z,11.00
2019-05-03T00:06:57.384Z,11.30
2019-05-03T00:09:29.636Z,11.63
2019-05-03T00:12:01.885Z,11.97
2019-05-03T00:14:36.042Z,12.37
2019-05-03T00:17:08.271Z,11.35
2019-05-03T00:19:42.260Z,11.93
2019-05-03T00:22:14.768Z,11.40
2019-05-03T00:24:47.143Z,11.48
2019-05-03T00:27:19.316Z,11.48
2019-05-03T00:29:52.409Z,12.75
2019-05-03T00:32:25.882Z,12.30
2019-05-03T00:35:01.649Z,11.90
2019-05-03T00:37:34.284Z,12.58
2019-05-03T00:40:09.577Z,11.20
2019-05-03T00:42:42.405Z,11.22
2019-05-03T00:45:14.598Z,11.70
2019-05-03T00:47:46.830Z,10.48
2019-05-03T00:50:19.118Z,10.43
2019-05-03T00:52:51.543Z,10.28
2019-05-03T00:55:24.561Z,10.50
2019-05-03T00:57:56.902Z,10.20
2019-05-03T01:00:29.526Z,10.20
2019-05-03T01:03:02.384Z,10.25
2019-05-03T01:05:34.821Z,9.13
2019-05-03T01:08:06.987Z,9.50
2019-05-03T01:10:39.186Z,9.68
2019-05-03T01:13:12.333Z,8.80
2019-05-03T01:15:46.303Z,9.68
2019-05-03T01:18:21.583Z,9.18
2019-05-03T01:20:53.260Z,10.30
2019-05-03T01:23:25.295Z,12.30
2019-05-03T01:25:57.473Z,9.33
2019-05-03T01:28:29.517Z,9.68
2019-05-03T01:31:02.586Z,8.88
2019-05-03T01:33:35.003Z,8.78
2019-05-03T01:36:07.400Z,8.78
2019-05-03T01:38:39.502Z,9.25
2019-05-03T01:41:12.316Z,9.10
2019-05-03T01:43:44.610Z,9.48
2019-05-03T01:46:16.917Z,8.98
2019-05-03T01:48:52.107Z,9.18
2019-05-03T01:51:24.957Z,8.75
2019-05-03T01:53:57.854Z,9.25
2019-05-03T01:56:31.666Z,9.90
2019-05-03T01:59:03.965Z,9.00
2019-05-03T02:01:37.325Z,9.33
2019-05-03T02:04:12.253Z,9.37
2019-05-03T02:06:44.540Z,8.98
2019-05-03T02:09:16.565Z,9.10
2019-05-03T02:11:48.671Z,8.95
2019-05-03T02:14:22.198Z,9.25
2019-05-03T02:16:55.743Z,9.20
2019-05-03T02:19:28.022Z,9.85
2019-05-03T02:22:00.191Z,9.70
2019-05-03T02:24:32.767Z,8.88
2019-05-03T02:27:05.431Z,9.10
2019-05-03T02:29:37.786Z,8.03
2019-05-03T02:32:09.944Z,8.40
2019-05-03T02:34:44.034Z,8.88
2019-05-03T02:37:15.875Z,8.78
2019-05-03T02:39:49.056Z,8.65
2019-05-03T02:42:21.166Z,9.58
2019-05-03T02:44:55.330Z,8.45
2019-05-03T02:47:28.180Z,8.83
2019-05-03T02:50:01.672Z,8.45
2019-05-03T02:52:36.726Z,8.33
2019-05-03T02:55:09.652Z,9.60
2019-05-03T02:57:41.917Z,7.87
2019-05-03T03:00:16.406Z,8.00
2019-05-03T03:02:48.722Z,9.03
2019-05-03T03:05:21.227Z,8.75
2019-05-03T03:07:55.930Z,9.25
2019-05-03T03:10:27.960Z,8.70
2019-05-03T03:13:00.238Z,8.80
2019-05-03T03:15:36.130Z,9.00
2019-05-03T03:18:08.087Z,8.88
2019-05-03T03:20:40.914Z,9.15
2019-05-03T03:23:17.389Z,8.63
2019-05-03T03:25:47.128Z,8.65
2019-05-03T03:28:20.252Z,8.90
2019-05-03T03:30:57.520Z,8.78
2019-05-03T03:33:28.821Z,9.20
2019-05-03T03:36:31.589Z,9.27
2019-05-03T03:38:35.289Z,9.45
2019-05-03T03:41:07.555Z,9.20
2019-05-03T03:43:39.824Z,9.20
2019-05-03T03:46:11.944Z,9.50
2019-05-03T03:48:46.034Z,9.15
2019-05-03T03:51:17.824Z,9.90
2019-05-03T03:53:50.114Z,9.40
2019-05-03T03:56:22.380Z,9.68
2019-05-03T03:58:55.523Z,9.20
2019-05-03T04:01:27.724Z,9.65
2019-05-03T04:04:00.013Z,9.67
2019-05-03T04:06:35.719Z,9.45
2019-05-03T04:09:07.211Z,10.23
2019-05-03T04:11:40.299Z,9.28
2019-05-03T04:14:16.040Z,9.13
2019-05-03T04:16:48.803Z,9.40
2019-05-03T04:19:24.939Z,8.83
2019-05-03T04:21:56.549Z,9.65
2019-05-03T04:24:29.637Z,8.80
2019-05-03T04:27:15.679Z,8.63
2019-05-03T04:29:38.139Z,9.00
2019-05-03T04:32:11.189Z,8.85
2019-05-03T04:34:45.433Z,8.68
2019-05-03T04:37:16.815Z,8.85
2019-05-03T04:39:50.522Z,9.40
2019-05-03T04:42:25.113Z,8.93
2019-05-03T04:44:56.652Z,8.65
2019-05-03T04:47:28.814Z,8.30
2019-05-03T04:50:00.923Z,8.30
2019-05-03T04:52:33.049Z,8.35
2019-05-03T04:55:07.066Z,8.20
2019-05-03T04:57:44.932Z,8.17
2019-05-03T05:00:15.796Z,7.97
2019-05-03T05:02:46.691Z,6.70
2019-05-03T05:05:18.862Z,7.35
2019-05-03T05:07:50.991Z,7.00
2019-05-03T05:10:25.712Z,7.35
2019-05-03T05:12:56.949Z,7.33
2019-05-03T05:15:29.033Z,7.08
2019-05-03T05:18:02.448Z,7.58
2019-05-03T05:20:36.353Z,6.80
2019-05-03T05:23:08.692Z,7.00
2019-05-03T05:25:42.017Z,6.80
2019-05-03T05:28:15.404Z,5.93
2019-05-03T05:30:47.723Z,6.25
2019-05-03T05:33:21.162Z,5.70
2019-05-03T05:35:54.788Z,5.40
2019-05-03T05:38:27.321Z,5.80
2019-05-03T05:40:59.399Z,5.85
2019-05-03T05:43:35.733Z,5.90
2019-05-03T05:46:08.060Z,5.78
2019-05-03T05:48:41.454Z,5.60
2019-05-03T05:51:15.988Z,5.67
2019-05-03T05:53:47.245Z,5.87
2019-05-03T05:56:20.606Z,4.95
2019-05-03T05:58:55.389Z,5.78
2019-05-03T06:01:29.161Z,5.75
2019-05-03T06:04:01.413Z,5.37
2019-05-03T06:06:34.911Z,5.63
2019-05-03T06:09:10.152Z,5.40
2019-05-03T06:11:45.016Z,5.65
2019-05-03T06:14:18.523Z,5.37
2019-05-03T06:16:51.985Z,5.90
2019-05-03T06:19:25.588Z,5.60
2019-05-03T06:21:59.289Z,5.47
2019-05-03T06:24:34.884Z,5.40
2019-05-03T06:27:07.729Z,5.62
2019-05-03T06:29:40.575Z,5.28
2019-05-03T06:32:15.399Z,5.22
2019-05-03T06:34:47.630Z,5.20
2019-05-03T06:37:21.062Z,5.07
2019-05-03T06:39:54.323Z,4.90
2019-05-03T06:42:27.386Z,5.30
2019-05-03T06:45:07.529Z,5.12
2019-05-03T06:47:34.827Z,5.03
2019-05-03T06:50:08.410Z,5.25
2019-05-03T06:52:40.625Z,5.22
2019-05-03T06:55:14.365Z,5.30
2019-05-03T06:57:49.543Z,5.47
2019-05-03T07:00:24.621Z,5.37
2019-05-03T07:02:57.818Z,5.22
2019-05-03T07:05:31.726Z,5.47
2019-05-03T07:08:05.315Z,5.17
2019-05-03T07:10:38.615Z,5.55
2019-05-03T07:13:12.032Z,5.10
2019-05-03T07:15:45.430Z,5.50
2019-05-03T07:18:17.683Z,5.60
2019-05-03T07:20:54.212Z,5.93
2019-05-03T07:23:25.259Z,5.40
2019-05-03T07:25:57.387Z,5.90
2019-05-03T07:28:43.563Z,5.40
2019-05-03T07:31:04.846Z,5.45
2019-05-03T07:33:38.164Z,5.62
2019-05-03T07:36:10.607Z,5.42
2019-05-03T07:38:42.975Z,5.95
2019-05-03T07:41:15.502Z,5.97
2019-05-03T07:43:47.681Z,6.50
2019-05-03T07:46:19.922Z,6.67
2019-05-03T07:48:52.281Z,6.40
2019-05-03T07:51:24.840Z,6.22
2019-05-03T07:53:58.387Z,8.98
2019-05-03T07:56:31.686Z,10.05
2019-05-03T07:59:06.455Z,6.92
2019-05-03T08:01:39.866Z,5.80
2019-05-03T08:04:12.107Z,5.43
2019-05-03T08:06:45.337Z,5.42
2019-05-03T08:09:17.612Z,8.18
2019-05-03T08:11:50.011Z,8.43
2019-05-03T08:14:22.558Z,7.95
2019-05-03T08:16:54.959Z,12.55
2019-05-03T08:19:27.301Z,9.30
2019-05-03T08:21:59.658Z,6.63
2019-05-03T08:24:32.055Z,7.60
2019-05-03T08:27:05.023Z,5.35
2019-05-03T08:29:37.427Z,12.23
2019-05-03T08:32:11.107Z,10.80
2019-05-03T08:34:45.374Z,6.20
2019-05-03T08:37:18.810Z,5.90
2019-05-03T08:39:51.099Z,10.83
2019-05-03T08:42:25.364Z,7.00
2019-05-03T08:44:57.941Z,5.17
2019-05-03T08:47:29.979Z,4.97
2019-05-03T08:50:02.045Z,10.68
2019-05-03T08:52:34.786Z,9.48
2019-05-03T08:55:08.043Z,5.95
2019-05-03T08:57:40.686Z,4.80
2019-05-03T09:00:14.499Z,4.83
2019-05-03T09:02:46.922Z,4.60
2019-05-03T09:05:19.389Z,4.50
2019-05-03T09:07:51.529Z,4.72
2019-05-03T09:10:25.887Z,5.10
2019-05-03T09:12:59.398Z,5.10
2019-05-03T09:15:32.022Z,4.95
2019-05-03T09:18:04.811Z,8.00
2019-05-03T09:20:37.335Z,8.08
2019-05-03T09:23:09.687Z,6.00
2019-05-03T09:25:41.866Z,5.12
2019-05-03T09:28:15.040Z,6.92
2019-05-03T09:30:47.285Z,21.42
2019-05-03T09:33:19.289Z,6.22
2019-05-03T09:35:51.552Z,5.05
2019-05-03T09:38:25.705Z,5.25
2019-05-03T09:40:57.223Z,5.50
2019-05-03T09:43:29.456Z,7.25
2019-05-03T09:46:01.633Z,6.00
2019-05-03T09:48:34.693Z,5.90
2019-05-03T09:51:07.084Z,10.32
2019-05-03T09:53:40.375Z,6.37
2019-05-03T09:56:12.452Z,6.00
2019-05-03T09:58:47.471Z,6.17
2019-05-03T10:01:20.530Z,5.20
2019-05-03T10:03:54.777Z,5.28
2019-05-03T10:06:26.689Z,5.22
2019-05-03T10:08:58.862Z,14.87
2019-05-03T10:11:31.017Z,14.30
2019-05-03T10:14:04.698Z,5.67
2019-05-03T10:16:38.519Z,5.03
2019-05-03T10:19:13.621Z,23.85
2019-05-03T10:21:46.032Z,9.13
2019-05-03T10:24:18.303Z,8.08
2019-05-03T10:26:51.952Z,5.28
2019-05-03T10:29:25.153Z,5.50
2019-05-03T10:31:58.545Z,5.10
2019-05-03T10:34:30.705Z,5.20
2019-05-03T10:37:05.199Z,5.30
2019-05-03T10:39:38.556Z,5.72
2019-05-03T10:42:10.723Z,7.35
2019-05-03T10:44:45.011Z,11.15
2019-05-03T10:47:17.362Z,6.00
2019-05-03T10:49:49.745Z,5.20
2019-05-03T10:52:25.648Z,4.90
2019-05-03T10:55:00.189Z,5.60
2019-05-03T10:57:35.530Z,5.47
2019-05-03T11:00:09.278Z,5.10
2019-05-03T11:02:45.301Z,6.08
2019-05-03T11:05:17.553Z,6.83
2019-05-03T11:07:51.368Z,8.30
2019-05-03T11:10:25.177Z,10.38
2019-05-03T11:12:57.340Z,11.18
2019-05-03T11:15:29.451Z,10.28
2019-05-03T11:18:05.443Z,9.30
2019-05-03T11:20:37.661Z,8.03
2019-05-03T11:23:10.266Z,8.88
2019-05-03T11:25:42.366Z,7.97
2019-05-03T11:28:16.162Z,8.05
2019-05-03T11:30:56.412Z,9.10
2019-05-03T11:33:24.768Z,7.83
2019-05-03T11:35:58.617Z,7.83
2019-05-03T11:38:32.160Z,7.05
2019-05-03T11:41:04.900Z,7.25
2019-05-03T11:43:37.568Z,8.68
2019-05-03T11:46:09.930Z,8.08
2019-05-03T11:48:42.164Z,10.00
2019-05-03T11:51:17.271Z,16.87
2019-05-03T11:53:49.420Z,13.27
2019-05-03T11:56:22.402Z,14.70
2019-05-03T11:58:54.989Z,15.03
2019-05-03T12:01:31.482Z,11.50
2019-05-03T12:04:04.976Z,9.43
2019-05-03T12:06:37.138Z,9.25
2019-05-03T12:09:10.600Z,8.85
2019-05-03T12:11:43.229Z,8.25
2019-05-03T12:14:15.617Z,8.90
2019-05-03T12:17:14.483Z,8.50
2019-05-03T12:19:30.457Z,7.80
2019-05-03T12:21:57.759Z,7.35
2019-05-03T12:24:30.785Z,7.35
2019-05-03T12:27:04.741Z,7.25
2019-05-03T12:29:37.121Z,6.95
2019-05-03T12:32:09.171Z,8.03
2019-05-03T12:34:41.418Z,7.90
2019-05-03T12:37:15.458Z,8.58
2019-05-03T12:39:47.365Z,8.85
2019-05-03T12:42:19.534Z,8.65
2019-05-03T12:44:51.793Z,10.35
2019-05-03T12:47:25.116Z,9.50
2019-05-03T12:49:57.457Z,13.98
2019-05-03T12:52:30.064Z,8.63
2019-05-03T12:55:04.448Z,8.00
2019-05-03T12:57:36.151Z,7.37
2019-05-03T13:00:11.249Z,7.28
2019-05-03T13:02:44.725Z,7.58
2019-05-03T13:05:17.090Z,7.53
2019-05-03T13:07:50.378Z,7.47
2019-05-03T13:10:25.966Z,7.03
2019-05-03T13:12:56.166Z,7.60
2019-05-03T13:15:28.285Z,7.05
2019-05-03T13:18:00.317Z,7.23
2019-05-03T13:20:32.938Z,7.40
2019-05-03T13:23:05.466Z,8.58
2019-05-03T13:25:37.914Z,9.53
2019-05-03T13:28:09.955Z,7.50
2019-05-03T13:30:45.130Z,7.65
2019-05-03T13:33:17.610Z,7.30
2019-05-03T13:35:50.184Z,7.40
2019-05-03T13:38:22.529Z,7.20
2019-05-03T13:40:54.913Z,7.30
2019-05-03T13:43:27.170Z,6.60
2019-05-03T13:45:59.369Z,6.50
2019-05-03T13:48:42.535Z,7.45
2019-05-03T13:51:06.463Z,7.40
2019-05-03T13:53:39.581Z,7.80
2019-05-03T13:56:11.727Z,7.80
2019-05-03T13:58:44.713Z,8.48
2019-05-03T14:01:17.084Z,8.75
2019-05-03T14:03:49.385Z,8.53
2019-05-03T14:06:21.686Z,7.28
2019-05-03T14:08:54.848Z,7.80
2019-05-03T14:11:27.257Z,8.70
2019-05-03T14:13:59.467Z,8.50
2019-05-03T14:16:31.650Z,8.70
2019-05-03T14:19:05.277Z,7.60
2019-05-03T14:21:39.020Z,7.55
2019-05-03T14:24:12.260Z,7.63
2019-05-03T14:26:44.808Z,8.55
2019-05-03T14:29:17.086Z,8.60
2019-05-03T14:31:50.439Z,8.33
2019-05-03T14:34:22.594Z,8.78
2019-05-03T14:36:55.459Z,8.80
2019-05-03T14:39:27.773Z,8.88
2019-05-03T14:41:59.998Z,9.53
2019-05-03T14:44:32.039Z,9.10
2019-05-03T14:47:05.747Z,8.95
2019-05-03T14:49:37.772Z,9.28
2019-05-03T14:52:10.127Z,8.58
2019-05-03T14:54:45.021Z,9.45
2019-05-03T14:57:18.192Z,9.28
2019-05-03T14:59:54.716Z,9.98
2019-05-03T15:02:40.158Z,9.43
2019-05-03T15:05:02.324Z,9.78
2019-05-03T15:07:35.725Z,9.98
2019-05-03T15:10:08.529Z,10.30
2019-05-03T15:12:40.997Z,10.50
2019-05-03T15:15:14.703Z,9.90
2019-05-03T15:17:47.083Z,9.90
2019-05-03T15:20:19.225Z,9.63
2019-05-03T15:22:51.525Z,9.68
2019-05-03T15:25:25.070Z,9.60
2019-05-03T15:27:57.380Z,10.33
2019-05-03T15:30:29.549Z,9.43
2019-05-03T15:33:01.681Z,9.85
2019-05-03T15:35:35.104Z,9.43
2019-05-03T15:38:07.449Z,9.43
2019-05-03T15:40:39.615Z,9.40
2019-05-03T15:43:14.794Z,9.65
2019-05-03T15:45:47.914Z,9.18
2019-05-03T15:48:21.478Z,9.25
2019-05-03T15:50:55.189Z,9.13
2019-05-03T15:53:27.087Z,9.60
2019-05-03T15:55:59.326Z,9.58
2019-05-03T15:58:31.518Z,9.25
2019-05-03T16:01:04.703Z,9.00
2019-05-03T16:03:37.055Z,8.90
2019-05-03T16:06:09.361Z,8.73
2019-05-03T16:08:41.545Z,8.58
2019-05-03T16:11:14.868Z,8.43
2019-05-03T16:13:47.166Z,8.60
2019-05-03T16:16:19.218Z,8.53
2019-05-03T16:18:51.387Z,9.00
2019-05-03T16:21:25.042Z,9.55
2019-05-03T16:23:57.038Z,10.18
2019-05-03T16:26:29.275Z,10.70
2019-05-03T16:29:04.561Z,10.53
2019-05-03T16:31:36.137Z,10.93
2019-05-03T16:34:08.456Z,10.80
2019-05-03T16:36:40.557Z,11.83
2019-05-03T16:39:12.861Z,12.68
2019-05-03T16:41:46.243Z,13.13
2019-05-03T16:44:18.716Z,13.15
2019-05-03T16:46:50.772Z,14.03
2019-05-03T16:49:24.576Z,13.95
2019-05-03T16:51:56.660Z,13.50
2019-05-03T16:54:29.448Z,13.65
2019-05-03T16:57:01.489Z,12.23
2019-05-03T16:59:35.233Z,10.98
2019-05-03T17:02:07.718Z,10.70
2019-05-03T17:04:41.285Z,10.32
2019-05-03T17:07:15.253Z,8.63
2019-05-03T17:09:48.792Z,8.65
2019-05-03T17:12:25.525Z,8.30
2019-05-03T17:14:58.167Z,7.45
2019-05-03T17:17:31.458Z,8.10
2019-05-03T17:20:03.634Z,8.17
2019-05-03T17:22:36.300Z,8.13
2019-05-03T17:25:08.453Z,7.50
2019-05-03T17:27:40.790Z,7.30
2019-05-03T17:30:12.994Z,7.90
2019-05-03T17:32:46.657Z,7.20
2019-05-03T17:35:18.846Z,7.50
2019-05-03T17:37:51.019Z,7.80
2019-05-03T17:40:24.471Z,7.72
2019-05-03T17:42:58.173Z,7.22
2019-05-03T17:45:31.877Z,7.20
2019-05-03T17:48:04.495Z,7.30
2019-05-03T17:50:37.312Z,7.28
2019-05-03T17:53:10.619Z,6.80
2019-05-03T17:55:44.593Z,6.53
2019-05-03T17:58:18.035Z,5.70
2019-05-03T18:00:51.738Z,5.80
2019-05-03T18:03:26.164Z,5.45
2019-05-03T18:05:59.644Z,5.30
2019-05-03T18:08:33.054Z,5.08
2019-05-03T18:11:06.748Z,4.90
2019-05-03T18:13:39.013Z,5.05
2019-05-03T18:16:11.326Z,5.43
2019-05-03T18:18:45.323Z,5.00
2019-05-03T18:21:16.957Z,5.53
2019-05-03T18:23:50.203Z,5.40
2019-05-03T18:26:22.275Z,4.80
2019-05-03T18:28:55.357Z,5.47
2019-05-03T18:31:27.739Z,5.45
2019-05-03T18:33:59.915Z,5.40
2019-05-03T18:36:32.422Z,5.20
2019-05-03T18:39:06.989Z,5.53
2019-05-03T18:41:40.352Z,5.53
2019-05-03T18:44:14.804Z,5.37
2019-05-03T18:46:48.555Z,5.75
2019-05-03T18:49:20.870Z,6.10
2019-05-03T18:51:55.160Z,6.33
2019-05-03T18:54:26.671Z,6.20
2019-05-03T18:56:58.806Z,6.17
2019-05-03T18:59:31.058Z,6.22
2019-05-03T19:02:03.156Z,6.28
2019-05-03T19:04:37.911Z,6.08
2019-05-03T19:07:11.477Z,6.30
2019-05-03T19:09:44.770Z,6.17
2019-05-03T19:12:18.331Z,6.30
2019-05-03T19:14:50.749Z,6.23
2019-05-03T19:17:24.846Z,6.50
2019-05-03T19:19:58.613Z,6.33
2019-05-03T19:22:31.072Z,7.85
2019-05-03T19:25:03.497Z,7.45
2019-05-03T19:27:35.684Z,7.63
2019-05-03T19:30:09.127Z,7.95
2019-05-03T19:32:41.440Z,9.48
2019-05-03T19:35:15.542Z,7.47
2019-05-03T19:37:47.023Z,7.28
2019-05-03T19:40:19.030Z,7.42
2019-05-03T19:42:51.278Z,7.08
2019-05-03T19:45:24.841Z,7.17
2019-05-03T19:47:57.390Z,7.13
2019-05-03T19:50:30.604Z,11.10
2019-05-03T19:53:05.154Z,8.35
2019-05-03T19:55:37.494Z,8.20
2019-05-03T19:58:09.734Z,6.60
2019-05-03T20:00:43.220Z,8.35
2019-05-03T20:03:16.838Z,6.50
2019-05-03T20:05:50.109Z,6.40
2019-05-03T20:08:24.626Z,7.05
2019-05-03T20:10:58.056Z,6.60
2019-05-03T20:13:34.633Z,6.80
2019-05-03T20:16:05.481Z,6.70
2019-05-03T20:18:37.459Z,7.05
2019-05-03T20:21:09.591Z,7.10
2019-05-03T20:23:41.724Z,6.62
2019-05-03T20:26:15.088Z,6.78
2019-05-03T20:28:47.558Z,6.47
2019-05-03T20:31:19.623Z,6.25
2019-05-03T20:33:51.641Z,6.95
2019-05-03T20:36:23.858Z,6.05
2019-05-03T20:38:56.230Z,6.75
2019-05-03T20:41:28.281Z,6.75
2019-05-03T20:44:01.731Z,6.67
2019-05-03T20:46:35.198Z,6.60
2019-05-03T20:49:09.754Z,6.83
2019-05-03T20:51:41.986Z,7.12
2019-05-03T20:54:15.257Z,10.70
2019-05-03T20:56:47.591Z,7.42
2019-05-03T20:59:19.894Z,16.42
2019-05-03T21:01:52.028Z,8.90
2019-05-03T21:04:24.719Z,7.55
2019-05-03T21:06:57.201Z,6.55
2019-05-03T21:09:29.529Z,10.70
2019-05-03T21:12:02.018Z,6.90
2019-05-03T21:14:35.060Z,12.03
2019-05-03T21:17:08.628Z,7.78
2019-05-03T21:19:44.591Z,7.72
2019-05-03T21:22:17.792Z,6.85
2019-05-03T21:24:51.253Z,6.80
2019-05-03T21:27:24.779Z,6.55
2019-05-03T21:29:57.336Z,6.47
2019-05-03T21:32:29.699Z,6.60
2019-05-03T21:35:02.143Z,6.90
2019-05-03T21:37:34.850Z,14.17
2019-05-03T21:40:08.484Z,7.83
2019-05-03T21:42:40.601Z,9.23
2019-05-03T21:45:15.075Z,8.10
2019-05-03T21:47:48.612Z,8.88
2019-05-03T21:50:22.108Z,8.08
2019-05-03T21:52:57.473Z,9.10
2019-05-03T21:55:28.789Z,7.62
2019-05-03T21:58:00.808Z,7.07
2019-05-03T22:00:34.403Z,7.00
2019-05-03T22:03:08.088Z,7.33
2019-05-03T22:05:52.729Z,6.92
2019-05-03T22:08:13.880Z,6.87
2019-05-03T22:10:45.941Z,7.22
2019-05-03T22:13:18.998Z,6.75
2019-05-03T22:15:52.352Z,8.43
2019-05-03T22:18:25.812Z,10.30
2019-05-03T22:20:59.610Z,11.08
2019-05-03T22:23:34.126Z,7.35
2019-05-03T22:26:08.383Z,7.60
2019-05-03T22:28:40.977Z,6.95
2019-05-03T22:31:13.091Z,7.87
2019-05-03T22:33:46.361Z,7.50
2019-05-03T22:36:19.732Z,7.37
2019-05-03T22:38:51.986Z,7.37
2019-05-03T22:41:25.313Z,7.62
2019-05-03T22:43:57.562Z,9.35
2019-05-03T22:46:30.848Z,7.55
2019-05-03T22:49:04.732Z,8.08
2019-05-03T22:51:36.794Z,7.78
2019-05-03T22:54:10.595Z,7.17
2019-05-03T22:56:44.589Z,7.42
2019-05-03T22:59:16.428Z,7.30
2019-05-03T23:01:48.613Z,10.78
2019-05-03T23:04:20.791Z,12.13
2019-05-03T23:06:55.277Z,10.38
2019-05-03T23:09:26.782Z,9.18
2019-05-03T23:11:59.050Z,9.13
2019-05-03T23:14:31.370Z,7.95
2019-05-03T23:17:03.755Z,7.97
2019-05-03T23:19:37.135Z,6.78
2019-05-03T23:22:10.872Z,6.70
2019-05-03T23:24:44.269Z,6.80
2019-05-03T23:27:16.413Z,7.17
2019-05-03T23:29:49.790Z,7.67
2019-05-03T23:32:22.066Z,9.67
2019-05-03T23:34:54.528Z,7.28
2019-05-03T23:37:26.722Z,7.10
2019-05-03T23:39:58.979Z,9.70
2019-05-03T23:42:31.127Z,9.78
2019-05-03T23:45:04.815Z,9.90
2019-05-03T23:47:38.113Z,7.72
2019-05-03T23:50:12.797Z,7.85
2019-05-03T23:52:45.303Z,7.75
2019-05-03T23:55:18.756Z,8.05
2019-05-03T23:57:50.983Z,8.20
